Time;durP1;ratioP1;P1;durP2;ratioP2;P2;SDS_P1;SDS_P2;PMS_P1;PMS_P2;Temp;Humidity;BMP_temperature;BMP_pressure;BME280_temperature;BME280_humidity;BME280_pressure;Samples;Min_cycle;Max_cycle;Signal;HPM_P1;HPM_P2
2021/03/24 00:00:42;;;;;;;18.25;9.349999;;;;;;;-0.98;86.33984;96004.61;;;;
2021/03/24 00:01:46;;;;;;;18.25;9.349999;;;;;;;-0.98;86.33984;96004.61;;;;
2021/03/24 00:02:47;;;;;;;18.25;9.349999;;;;;;;-0.98;86.33984;96004.61;;;;
2021/03/24 00:03:48;;;;;;;18.25;9.349999;;;;;;;-0.98;86.33984;96004.61;;;;
2021/03/24 00:04:49;;;;;;;18.25;9.349999;;;;;;;-0.98;86.33984;96004.61;;;;
2021/03/24 00:05:49;;;;;;;18.25;9.349999;;;;;;;-0.98;86.33984;96004.61;;;;
2021/03/24 00:06:52;;;;;;;18.2;9.200001;;;;;;;-1.17;86.62402;96013.15;;;;
2021/03/24 00:07:53;;;;;;;18.2;9.200001;;;;;;;-1.17;86.62402;96013.15;;;;
2021/03/24 00:08:53;;;;;;;18.2;9.200001;;;;;;;-1.17;86.62402;96013.15;;;;
2021/03/24 00:09:54;;;;;;;18.2;9.200001;;;;;;;-1.17;86.62402;96013.15;;;;
2021/03/24 00:10:54;;;;;;;18.2;9.200001;;;;;;;-1.17;86.62402;96013.15;;;;
2021/03/24 00:11:55;;;;;;;18.2;9.200001;;;;;;;-1.17;86.62402;96013.15;;;;
2021/03/24 00:12:55;;;;;;;18.2;9.200001;;;;;;;-1.17;86.62402;96013.15;;;;
2021/03/24 00:13:57;;;;;;;18.2;9.200001;;;;;;;-1.17;86.62402;96013.15;;;;
2021/03/24 00:14:58;;;;;;;18.2;9.200001;;;;;;;-1.17;86.62402;96013.15;;;;
2021/03/24 00:15:59;;;;;;;18.2;9.200001;;;;;;;-1.17;86.62402;96013.15;;;;
2021/03/24 00:17:01;;;;;;;17.95;9.25;;;;;;;-1.32;87.02832;96000.87;;;;
2021/03/24 00:18:02;;;;;;;17.95;9.25;;;;;;;-1.32;87.02832;96000.87;;;;
2021/03/24 00:19:04;;;;;;;17.95;9.25;;;;;;;-1.32;87.02832;96000.87;;;;
2021/03/24 00:20:05;;;;;;;17.95;9.25;;;;;;;-1.32;87.02832;96000.87;;;;
2021/03/24 00:21:09;;;;;;;17.95;9.25;;;;;;;-1.32;87.02832;96000.87;;;;
2021/03/24 00:22:09;;;;;;;17.95;9.25;;;;;;;-1.32;87.02832;96000.87;;;;
2021/03/24 00:23:10;;;;;;;17.95;9.25;;;;;;;-1.32;87.02832;96000.87;;;;
2021/03/24 00:24:12;;;;;;;17.95;9.25;;;;;;;-1.32;87.02832;96000.87;;;;
2021/03/24 00:25:14;;;;;;;17.95;9.25;;;;;;;-1.32;87.02832;96000.87;;;;
2021/03/24 00:26:16;;;;;;;17.95;9.25;;;;;;;-1.32;87.02832;96000.87;;;;
2021/03/24 00:27:17;;;;;;;19.1;9.099998;;;;;;;-1.43;87.27246;95997.56;;;;
2021/03/24 00:28:18;;;;;;;19.1;9.099998;;;;;;;-1.43;87.27246;95997.56;;;;
2021/03/24 00:29:19;;;;;;;19.1;9.099998;;;;;;;-1.43;87.27246;95997.56;;;;
2021/03/24 00:30:20;;;;;;;19.1;9.099998;;;;;;;-1.43;87.27246;95997.56;;;;
2021/03/24 00:31:23;;;;;;;19.1;9.099998;;;;;;;-1.43;87.27246;95997.56;;;;
2021/03/24 00:32:23;;;;;;;19.1;9.099998;;;;;;;-1.43;87.27246;95997.56;;;;
2021/03/24 00:33:24;;;;;;;19.1;9.099998;;;;;;;-1.43;87.27246;95997.56;;;;
2021/03/24 00:34:26;;;;;;;19.1;9.099998;;;;;;;-1.43;87.27246;95997.56;;;;
2021/03/24 00:35:27;;;;;;;19.1;9.099998;;;;;;;-1.43;87.27246;95997.56;;;;
2021/03/24 00:36:27;;;;;;;19.1;9.099998;;;;;;;-1.43;87.27246;95997.56;;;;
2021/03/24 00:37:28;;;;;;;19.1;9.099998;;;;;;;-1.43;87.27246;95997.56;;;;
2021/03/24 00:38:28;;;;;;;18.45;9.800001;;;;;;;-1.54;87.52246;95993.29;;;;
2021/03/24 00:39:29;;;;;;;18.45;9.800001;;;;;;;-1.54;87.52246;95993.29;;;;
2021/03/24 00:40:30;;;;;;;18.45;9.800001;;;;;;;-1.54;87.52246;95993.29;;;;
2021/03/24 00:41:33;;;;;;;18.45;9.800001;;;;;;;-1.54;87.52246;95993.29;;;;
2021/03/24 00:42:34;;;;;;;18.45;9.800001;;;;;;;-1.54;87.52246;95993.29;;;;
2021/03/24 00:43:34;;;;;;;18.45;9.800001;;;;;;;-1.54;87.52246;95993.29;;;;
2021/03/24 00:44:35;;;;;;;18.45;9.800001;;;;;;;-1.54;87.52246;95993.29;;;;
2021/03/24 00:45:35;;;;;;;18.45;9.800001;;;;;;;-1.54;87.52246;95993.29;;;;
2021/03/24 00:46:38;;;;;;;18.45;9.800001;;;;;;;-1.54;87.52246;95993.29;;;;
2021/03/24 00:47:38;;;;;;;18.45;9.800001;;;;;;;-1.54;87.52246;95993.29;;;;
2021/03/24 00:48:39;;;;;;;21.35;10.45;;;;;;;-1.62;87.77441;95990.55;;;;
2021/03/24 00:49:40;;;;;;;21.35;10.45;;;;;;;-1.62;87.77441;95990.55;;;;
2021/03/24 00:50:40;;;;;;;21.35;10.45;;;;;;;-1.62;87.77441;95990.55;;;;
2021/03/24 00:51:41;;;;;;;21.35;10.45;;;;;;;-1.62;87.77441;95990.55;;;;
2021/03/24 00:52:41;;;;;;;21.35;10.45;;;;;;;-1.62;87.77441;95990.55;;;;
2021/03/24 00:53:42;;;;;;;21.35;10.45;;;;;;;-1.62;87.77441;95990.55;;;;
2021/03/24 00:54:43;;;;;;;21.35;10.45;;;;;;;-1.62;87.77441;95990.55;;;;
2021/03/24 00:55:43;;;;;;;21.35;10.45;;;;;;;-1.62;87.77441;95990.55;;;;
2021/03/24 00:56:46;;;;;;;21.35;10.45;;;;;;;-1.62;87.77441;95990.55;;;;
2021/03/24 00:57:47;;;;;;;21.35;10.45;;;;;;;-1.62;87.77441;95990.55;;;;
2021/03/24 00:58:48;;;;;;;21.35;10.45;;;;;;;-1.62;87.77441;95990.55;;;;
2021/03/24 00:59:48;;;;;;;21.1;10.4;;;;;;;-1.65;88.13086;95974.03;;;;
2021/03/24 01:00:49;;;;;;;21.1;10.4;;;;;;;-1.65;88.13086;95974.03;;;;
2021/03/24 01:01:50;;;;;;;21.1;10.4;;;;;;;-1.65;88.13086;95974.03;;;;
2021/03/24 01:02:51;;;;;;;21.1;10.4;;;;;;;-1.65;88.13086;95974.03;;;;
2021/03/24 01:03:51;;;;;;;21.1;10.4;;;;;;;-1.65;88.13086;95974.03;;;;
2021/03/24 01:04:52;;;;;;;21.1;10.4;;;;;;;-1.65;88.13086;95974.03;;;;
2021/03/24 01:05:52;;;;;;;21.1;10.4;;;;;;;-1.65;88.13086;95974.03;;;;
2021/03/24 01:06:53;;;;;;;21.1;10.4;;;;;;;-1.65;88.13086;95974.03;;;;
2021/03/24 01:07:53;;;;;;;21.1;10.4;;;;;;;-1.65;88.13086;95974.03;;;;
2021/03/24 01:08:55;;;;;;;21.1;10.4;;;;;;;-1.65;88.13086;95974.03;;;;
2021/03/24 01:09:56;;;;;;;21.1;10.4;;;;;;;-1.65;88.13086;95974.03;;;;
2021/03/24 01:10:57;;;;;;;19.9;10.4;;;;;;;-1.67;88.18945;95961.01;;;;
2021/03/24 01:11:57;;;;;;;19.9;10.4;;;;;;;-1.67;88.18945;95961.01;;;;
2021/03/24 01:12:58;;;;;;;19.9;10.4;;;;;;;-1.67;88.18945;95961.01;;;;
2021/03/24 01:13:58;;;;;;;19.9;10.4;;;;;;;-1.67;88.18945;95961.01;;;;
2021/03/24 01:14:59;;;;;;;19.9;10.4;;;;;;;-1.67;88.18945;95961.01;;;;
2021/03/24 01:15:59;;;;;;;19.9;10.4;;;;;;;-1.67;88.18945;95961.01;;;;
2021/03/24 01:17:00;;;;;;;19.9;10.4;;;;;;;-1.67;88.18945;95961.01;;;;
2021/03/24 01:18:01;;;;;;;19.9;10.4;;;;;;;-1.67;88.18945;95961.01;;;;
2021/03/24 01:19:02;;;;;;;19.9;10.4;;;;;;;-1.67;88.18945;95961.01;;;;
2021/03/24 01:20:03;;;;;;;19.9;10.4;;;;;;;-1.67;88.18945;95961.01;;;;
2021/03/24 01:21:06;;;;;;;20.5;10.8;;;;;;;-1.7;88.35938;95956.86;;;;
2021/03/24 01:22:06;;;;;;;20.5;10.8;;;;;;;-1.7;88.35938;95956.86;;;;
2021/03/24 01:23:07;;;;;;;20.5;10.8;;;;;;;-1.7;88.35938;95956.86;;;;
2021/03/24 01:24:08;;;;;;;20.5;10.8;;;;;;;-1.7;88.35938;95956.86;;;;
2021/03/24 01:25:08;;;;;;;20.5;10.8;;;;;;;-1.7;88.35938;95956.86;;;;
2021/03/24 01:26:10;;;;;;;20.5;10.8;;;;;;;-1.7;88.35938;95956.86;;;;
2021/03/24 01:27:10;;;;;;;20.5;10.8;;;;;;;-1.7;88.35938;95956.86;;;;
2021/03/24 01:28:11;;;;;;;20.5;10.8;;;;;;;-1.7;88.35938;95956.86;;;;
2021/03/24 01:29:17;;;;;;;20.5;10.8;;;;;;;-1.7;88.35938;95956.86;;;;
2021/03/24 01:30:18;;;;;;;20.5;10.8;;;;;;;-1.7;88.35938;95956.86;;;;
2021/03/24 01:31:21;;;;;;;22.59999;11.1;;;;;;;-1.69;88.72363;95957.67;;;;
2021/03/24 01:32:22;;;;;;;22.59999;11.1;;;;;;;-1.69;88.72363;95957.67;;;;
2021/03/24 01:33:22;;;;;;;22.59999;11.1;;;;;;;-1.69;88.72363;95957.67;;;;
2021/03/24 01:34:23;;;;;;;22.59999;11.1;;;;;;;-1.69;88.72363;95957.67;;;;
2021/03/24 01:35:23;;;;;;;22.59999;11.1;;;;;;;-1.69;88.72363;95957.67;;;;
2021/03/24 01:36:25;;;;;;;22.59999;11.1;;;;;;;-1.69;88.72363;95957.67;;;;
2021/03/24 01:37:27;;;;;;;22.59999;11.1;;;;;;;-1.69;88.72363;95957.67;;;;
2021/03/24 01:38:27;;;;;;;22.59999;11.1;;;;;;;-1.69;88.72363;95957.67;;;;
2021/03/24 01:39:28;;;;;;;22.59999;11.1;;;;;;;-1.69;88.72363;95957.67;;;;
2021/03/24 01:40:29;;;;;;;22.59999;11.1;;;;;;;-1.69;88.72363;95957.67;;;;
2021/03/24 01:41:32;;;;;;;22.59999;11.1;;;;;;;-1.69;88.72363;95957.67;;;;
2021/03/24 01:42:33;;;;;;;22.9;10.75;;;;;;;-1.56;88.92578;95952.47;;;;
2021/03/24 01:43:33;;;;;;;22.9;10.75;;;;;;;-1.56;88.92578;95952.47;;;;
2021/03/24 01:44:36;;;;;;;22.9;10.75;;;;;;;-1.56;88.92578;95952.47;;;;
2021/03/24 01:47:27;;;;;;;22.9;10.75;;;;;;;-1.56;88.92578;95952.47;;;;
2021/03/24 01:48:27;;;;;;;22.9;10.75;;;;;;;-1.56;88.92578;95952.47;;;;
2021/03/24 01:49:28;;;;;;;22.9;10.75;;;;;;;-1.56;88.92578;95952.47;;;;
2021/03/24 01:50:32;;;;;;;22.9;10.75;;;;;;;-1.56;88.92578;95952.47;;;;
2021/03/24 01:51:38;;;;;;;22.9;10.75;;;;;;;-1.56;88.92578;95952.47;;;;
2021/03/24 01:52:42;;;;;;;24.3;11.45;;;;;;;-1.48;88.70508;95951.26;;;;
2021/03/24 01:53:43;;;;;;;24.3;11.45;;;;;;;-1.48;88.70508;95951.26;;;;
2021/03/24 01:54:44;;;;;;;24.3;11.45;;;;;;;-1.48;88.70508;95951.26;;;;
2021/03/24 01:55:45;;;;;;;24.3;11.45;;;;;;;-1.48;88.70508;95951.26;;;;
2021/03/24 01:56:46;;;;;;;24.3;11.45;;;;;;;-1.48;88.70508;95951.26;;;;
2021/03/24 01:57:52;;;;;;;24.3;11.45;;;;;;;-1.48;88.70508;95951.26;;;;
2021/03/24 01:58:54;;;;;;;24.3;11.45;;;;;;;-1.48;88.70508;95951.26;;;;
2021/03/24 01:59:56;;;;;;;24.3;11.45;;;;;;;-1.48;88.70508;95951.26;;;;
2021/03/24 02:00:56;;;;;;;24.3;11.45;;;;;;;-1.48;88.70508;95951.26;;;;
2021/03/24 02:01:57;;;;;;;24.3;11.45;;;;;;;-1.48;88.70508;95951.26;;;;
2021/03/24 02:02:58;;;;;;;24.3;11.45;;;;;;;-1.48;88.70508;95951.26;;;;
2021/03/24 02:03:59;;;;;;;20.55;10.95;;;;;;;-1.56;88.79102;95948.49;;;;
2021/03/24 02:05:00;;;;;;;20.55;10.95;;;;;;;-1.56;88.79102;95948.49;;;;
2021/03/24 02:06:00;;;;;;;20.55;10.95;;;;;;;-1.56;88.79102;95948.49;;;;
2021/03/24 02:07:09;;;;;;;20.55;10.95;;;;;;;-1.56;88.79102;95948.49;;;;
2021/03/24 02:08:17;;;;;;;20.55;10.95;;;;;;;-1.56;88.79102;95948.49;;;;
2021/03/24 02:09:21;;;;;;;20.55;10.95;;;;;;;-1.56;88.79102;95948.49;;;;
2021/03/24 02:10:30;;;;;;;20.55;10.95;;;;;;;-1.56;88.79102;95948.49;;;;
2021/03/24 02:11:34;;;;;;;20.55;10.95;;;;;;;-1.56;88.79102;95948.49;;;;
2021/03/24 02:12:39;;;;;;;20.55;10.95;;;;;;;-1.56;88.79102;95948.49;;;;
2021/03/24 02:13:45;;;;;;;20.55;10.95;;;;;;;-1.56;88.79102;95948.49;;;;
2021/03/24 02:14:55;;;;;;;20.35;10.75;;;;;;;-1.6;88.85547;95939.2;;;;
2021/03/24 02:16:00;;;;;;;20.35;10.75;;;;;;;-1.6;88.85547;95939.2;;;;
2021/03/24 02:17:06;;;;;;;20.35;10.75;;;;;;;-1.6;88.85547;95939.2;;;;
2021/03/24 02:18:08;;;;;;;20.35;10.75;;;;;;;-1.6;88.85547;95939.2;;;;
2021/03/24 02:19:11;;;;;;;20.35;10.75;;;;;;;-1.6;88.85547;95939.2;;;;
2021/03/24 02:20:22;;;;;;;20.35;10.75;;;;;;;-1.6;88.85547;95939.2;;;;
2021/03/24 02:21:28;;;;;;;20.35;10.75;;;;;;;-1.6;88.85547;95939.2;;;;
2021/03/24 02:22:34;;;;;;;20.35;10.75;;;;;;;-1.6;88.85547;95939.2;;;;
2021/03/24 02:23:39;;;;;;;20.35;10.75;;;;;;;-1.6;88.85547;95939.2;;;;
2021/03/24 02:24:50;;;;;;;22.5;10.75;;;;;;;-1.69;88.75488;95941.4;;;;
2021/03/24 02:25:59;;;;;;;22.5;10.75;;;;;;;-1.69;88.75488;95941.4;;;;
2021/03/24 02:27:11;;;;;;;22.5;10.75;;;;;;;-1.69;88.75488;95941.4;;;;
2021/03/24 02:28:14;;;;;;;22.5;10.75;;;;;;;-1.69;88.75488;95941.4;;;;
2021/03/24 02:29:15;;;;;;;22.5;10.75;;;;;;;-1.69;88.75488;95941.4;;;;
2021/03/24 02:30:21;;;;;;;22.5;10.75;;;;;;;-1.69;88.75488;95941.4;;;;
2021/03/24 02:31:27;;;;;;;22.5;10.75;;;;;;;-1.69;88.75488;95941.4;;;;
2021/03/24 02:32:29;;;;;;;22.5;10.75;;;;;;;-1.69;88.75488;95941.4;;;;
2021/03/24 02:33:34;;;;;;;22.5;10.75;;;;;;;-1.69;88.75488;95941.4;;;;
2021/03/24 02:34:39;;;;;;;22.5;10.75;;;;;;;-1.69;88.75488;95941.4;;;;
2021/03/24 02:35:42;;;;;;;17.55;9.849999;;;;;;;-1.81;88.91602;95938.08;;;;
2021/03/24 02:36:46;;;;;;;17.55;9.849999;;;;;;;-1.81;88.91602;95938.08;;;;
2021/03/24 02:37:48;;;;;;;17.55;9.849999;;;;;;;-1.81;88.91602;95938.08;;;;
2021/03/24 02:38:50;;;;;;;17.55;9.849999;;;;;;;-1.81;88.91602;95938.08;;;;
2021/03/24 02:39:55;;;;;;;17.55;9.849999;;;;;;;-1.81;88.91602;95938.08;;;;
2021/03/24 02:40:57;;;;;;;17.55;9.849999;;;;;;;-1.81;88.91602;95938.08;;;;
2021/03/24 02:41:59;;;;;;;17.55;9.849999;;;;;;;-1.81;88.91602;95938.08;;;;
2021/03/24 02:43:04;;;;;;;17.55;9.849999;;;;;;;-1.81;88.91602;95938.08;;;;
2021/03/24 02:44:06;;;;;;;17.55;9.849999;;;;;;;-1.81;88.91602;95938.08;;;;
2021/03/24 02:45:08;;;;;;;17.55;9.849999;;;;;;;-1.81;88.91602;95938.08;;;;
2021/03/24 02:46:12;;;;;;;21.7;11.1;;;;;;;-1.97;89.25488;95940.93;;;;
2021/03/24 02:47:14;;;;;;;21.7;11.1;;;;;;;-1.97;89.25488;95940.93;;;;
2021/03/24 02:48:14;;;;;;;21.7;11.1;;;;;;;-1.97;89.25488;95940.93;;;;
2021/03/24 02:49:21;;;;;;;21.7;11.1;;;;;;;-1.97;89.25488;95940.93;;;;
2021/03/24 02:50:23;;;;;;;21.7;11.1;;;;;;;-1.97;89.25488;95940.93;;;;
2021/03/24 02:51:26;;;;;;;21.7;11.1;;;;;;;-1.97;89.25488;95940.93;;;;
2021/03/24 02:52:27;;;;;;;21.7;11.1;;;;;;;-1.97;89.25488;95940.93;;;;
2021/03/24 02:53:28;;;;;;;21.7;11.1;;;;;;;-1.97;89.25488;95940.93;;;;
2021/03/24 02:54:30;;;;;;;21.7;11.1;;;;;;;-1.97;89.25488;95940.93;;;;
2021/03/24 02:55:32;;;;;;;21.7;11.1;;;;;;;-1.97;89.25488;95940.93;;;;
2021/03/24 02:56:36;;;;;;;21.7;11.1;;;;;;;-1.97;89.25488;95940.93;;;;
2021/03/24 02:57:37;;;;;;;21.3;10.9;;;;;;;-2.1;89.62012;95940.4;;;;
2021/03/24 02:58:38;;;;;;;21.3;10.9;;;;;;;-2.1;89.62012;95940.4;;;;
2021/03/24 02:59:39;;;;;;;21.3;10.9;;;;;;;-2.1;89.62012;95940.4;;;;
2021/03/24 03:00:39;;;;;;;21.3;10.9;;;;;;;-2.1;89.62012;95940.4;;;;
2021/03/24 03:01:40;;;;;;;21.3;10.9;;;;;;;-2.1;89.62012;95940.4;;;;
2021/03/24 03:02:49;;;;;;;21.3;10.9;;;;;;;-2.1;89.62012;95940.4;;;;
2021/03/24 03:03:53;;;;;;;21.3;10.9;;;;;;;-2.1;89.62012;95940.4;;;;
2021/03/24 03:04:59;;;;;;;21.3;10.9;;;;;;;-2.1;89.62012;95940.4;;;;
2021/03/24 03:06:05;;;;;;;21.3;10.9;;;;;;;-2.1;89.62012;95940.4;;;;
2021/03/24 03:07:10;;;;;;;21.3;10.9;;;;;;;-2.1;89.62012;95940.4;;;;
2021/03/24 03:08:16;;;;;;;20.8;10.75;;;;;;;-2.21;89.80469;95939.65;;;;
2021/03/24 03:09:23;;;;;;;20.8;10.75;;;;;;;-2.21;89.80469;95939.65;;;;
2021/03/24 03:10:31;;;;;;;20.8;10.75;;;;;;;-2.21;89.80469;95939.65;;;;
2021/03/24 03:11:37;;;;;;;20.8;10.75;;;;;;;-2.21;89.80469;95939.65;;;;
2021/03/24 03:12:42;;;;;;;20.8;10.75;;;;;;;-2.21;89.80469;95939.65;;;;
2021/03/24 03:13:52;;;;;;;20.8;10.75;;;;;;;-2.21;89.80469;95939.65;;;;
2021/03/24 03:14:57;;;;;;;20.8;10.75;;;;;;;-2.21;89.80469;95939.65;;;;
2021/03/24 03:16:01;;;;;;;20.8;10.75;;;;;;;-2.21;89.80469;95939.65;;;;
2021/03/24 03:17:06;;;;;;;20.8;10.75;;;;;;;-2.21;89.80469;95939.65;;;;
2021/03/24 03:18:12;;;;;;;23.7;11.6;;;;;;;-2.29;90.03516;95951.93;;;;
2021/03/24 03:19:20;;;;;;;23.7;11.6;;;;;;;-2.29;90.03516;95951.93;;;;
2021/03/24 03:20:26;;;;;;;23.7;11.6;;;;;;;-2.29;90.03516;95951.93;;;;
2021/03/24 03:21:32;;;;;;;23.7;11.6;;;;;;;-2.29;90.03516;95951.93;;;;
2021/03/24 03:22:39;;;;;;;23.7;11.6;;;;;;;-2.29;90.03516;95951.93;;;;
2021/03/24 03:23:46;;;;;;;23.7;11.6;;;;;;;-2.29;90.03516;95951.93;;;;
2021/03/24 03:24:49;;;;;;;23.7;11.6;;;;;;;-2.29;90.03516;95951.93;;;;
2021/03/24 03:25:54;;;;;;;23.7;11.6;;;;;;;-2.29;90.03516;95951.93;;;;
2021/03/24 03:26:59;;;;;;;23.7;11.6;;;;;;;-2.29;90.03516;95951.93;;;;
2021/03/24 03:28:01;;;;;;;23.7;11.6;;;;;;;-2.29;90.03516;95951.93;;;;
2021/03/24 03:29:07;;;;;;;22.45;12.3;;;;;;;-2.37;90.19238;95947.4;;;;
2021/03/24 03:30:12;;;;;;;22.45;12.3;;;;;;;-2.37;90.19238;95947.4;;;;
2021/03/24 03:31:16;;;;;;;22.45;12.3;;;;;;;-2.37;90.19238;95947.4;;;;
2021/03/24 03:32:21;;;;;;;22.45;12.3;;;;;;;-2.37;90.19238;95947.4;;;;
2021/03/24 03:33:24;;;;;;;22.45;12.3;;;;;;;-2.37;90.19238;95947.4;;;;
2021/03/24 03:34:29;;;;;;;22.45;12.3;;;;;;;-2.37;90.19238;95947.4;;;;
2021/03/24 03:35:32;;;;;;;22.45;12.3;;;;;;;-2.37;90.19238;95947.4;;;;
2021/03/24 03:36:35;;;;;;;22.45;12.3;;;;;;;-2.37;90.19238;95947.4;;;;
2021/03/24 03:37:37;;;;;;;22.45;12.3;;;;;;;-2.37;90.19238;95947.4;;;;
2021/03/24 03:38:39;;;;;;;22.45;12.3;;;;;;;-2.37;90.19238;95947.4;;;;
2021/03/24 03:39:42;;;;;;;24.95;11.65;;;;;;;-2.45;90.33301;95948.55;;;;
2021/03/24 03:40:45;;;;;;;24.95;11.65;;;;;;;-2.45;90.33301;95948.55;;;;
2021/03/24 03:41:47;;;;;;;24.95;11.65;;;;;;;-2.45;90.33301;95948.55;;;;
2021/03/24 03:42:49;;;;;;;24.95;11.65;;;;;;;-2.45;90.33301;95948.55;;;;
2021/03/24 03:43:52;;;;;;;24.95;11.65;;;;;;;-2.45;90.33301;95948.55;;;;
2021/03/24 03:44:55;;;;;;;24.95;11.65;;;;;;;-2.45;90.33301;95948.55;;;;
2021/03/24 03:45:56;;;;;;;24.95;11.65;;;;;;;-2.45;90.33301;95948.55;;;;
2021/03/24 03:46:59;;;;;;;24.95;11.65;;;;;;;-2.45;90.33301;95948.55;;;;
2021/03/24 03:48:05;;;;;;;24.95;11.65;;;;;;;-2.45;90.33301;95948.55;;;;
2021/03/24 03:49:08;;;;;;;24.95;11.65;;;;;;;-2.45;90.33301;95948.55;;;;
2021/03/24 03:50:09;;;;;;;22;11.55;;;;;;;-2.53;90.45801;95951.1;;;;
2021/03/24 03:51:17;;;;;;;22;11.55;;;;;;;-2.53;90.45801;95951.1;;;;
2021/03/24 03:52:30;;;;;;;22;11.55;;;;;;;-2.53;90.45801;95951.1;;;;
2021/03/24 03:53:41;;;;;;;22;11.55;;;;;;;-2.53;90.45801;95951.1;;;;
2021/03/24 03:54:49;;;;;;;22;11.55;;;;;;;-2.53;90.45801;95951.1;;;;
2021/03/24 03:56:00;;;;;;;22;11.55;;;;;;;-2.53;90.45801;95951.1;;;;
2021/03/24 03:57:06;;;;;;;22;11.55;;;;;;;-2.53;90.45801;95951.1;;;;
2021/03/24 03:58:14;;;;;;;22;11.55;;;;;;;-2.53;90.45801;95951.1;;;;
2021/03/24 03:59:26;;;;;;;22;11.55;;;;;;;-2.53;90.45801;95951.1;;;;
2021/03/24 04:00:35;;;;;;;22;11.55;;;;;;;-2.53;90.45801;95951.1;;;;
2021/03/24 04:01:41;;;;;;;21.75;11.05;;;;;;;-2.6;90.65039;95955.22;;;;
2021/03/24 04:02:46;;;;;;;21.75;11.05;;;;;;;-2.6;90.65039;95955.22;;;;
2021/03/24 04:03:53;;;;;;;21.75;11.05;;;;;;;-2.6;90.65039;95955.22;;;;
2021/03/24 04:04:57;;;;;;;21.75;11.05;;;;;;;-2.6;90.65039;95955.22;;;;
2021/03/24 04:06:03;;;;;;;21.75;11.05;;;;;;;-2.6;90.65039;95955.22;;;;
2021/03/24 04:07:08;;;;;;;21.75;11.05;;;;;;;-2.6;90.65039;95955.22;;;;
2021/03/24 04:08:14;;;;;;;21.75;11.05;;;;;;;-2.6;90.65039;95955.22;;;;
2021/03/24 04:09:20;;;;;;;21.75;11.05;;;;;;;-2.6;90.65039;95955.22;;;;
2021/03/24 04:10:21;;;;;;;21.75;11.05;;;;;;;-2.6;90.65039;95955.22;;;;
2021/03/24 04:11:25;;;;;;;21.7;10.9;;;;;;;-2.57;90.59473;95965.59;;;;
2021/03/24 04:12:28;;;;;;;21.7;10.9;;;;;;;-2.57;90.59473;95965.59;;;;
2021/03/24 04:13:33;;;;;;;21.7;10.9;;;;;;;-2.57;90.59473;95965.59;;;;
2021/03/24 04:14:36;;;;;;;21.7;10.9;;;;;;;-2.57;90.59473;95965.59;;;;
2021/03/24 04:15:38;;;;;;;21.7;10.9;;;;;;;-2.57;90.59473;95965.59;;;;
2021/03/24 04:16:39;;;;;;;21.7;10.9;;;;;;;-2.57;90.59473;95965.59;;;;
2021/03/24 04:17:41;;;;;;;21.7;10.9;;;;;;;-2.57;90.59473;95965.59;;;;
2021/03/24 04:18:46;;;;;;;21.7;10.9;;;;;;;-2.57;90.59473;95965.59;;;;
2021/03/24 04:19:52;;;;;;;21.7;10.9;;;;;;;-2.57;90.59473;95965.59;;;;
2021/03/24 04:20:56;;;;;;;21.7;10.9;;;;;;;-2.57;90.59473;95965.59;;;;
2021/03/24 04:21:59;;;;;;;21.7;10.9;;;;;;;-2.57;90.59473;95965.59;;;;
2021/03/24 04:23:02;;;;;;;23.5;10.5;;;;;;;-2.67;90.55371;95968.66;;;;
2021/03/24 04:24:08;;;;;;;23.5;10.5;;;;;;;-2.67;90.55371;95968.66;;;;
2021/03/24 04:25:14;;;;;;;23.5;10.5;;;;;;;-2.67;90.55371;95968.66;;;;
2021/03/24 04:26:20;;;;;;;23.5;10.5;;;;;;;-2.67;90.55371;95968.66;;;;
2021/03/24 04:27:23;;;;;;;23.5;10.5;;;;;;;-2.67;90.55371;95968.66;;;;
2021/03/24 04:28:28;;;;;;;23.5;10.5;;;;;;;-2.67;90.55371;95968.66;;;;
2021/03/24 04:29:38;;;;;;;23.5;10.5;;;;;;;-2.67;90.55371;95968.66;;;;
2021/03/24 04:30:43;;;;;;;23.5;10.5;;;;;;;-2.67;90.55371;95968.66;;;;
2021/03/24 04:31:49;;;;;;;23.5;10.5;;;;;;;-2.67;90.55371;95968.66;;;;
2021/03/24 04:32:52;;;;;;;21.05;9.9;;;;;;;-2.76;90.88477;95974.34;;;;
2021/03/24 04:33:53;;;;;;;21.05;9.9;;;;;;;-2.76;90.88477;95974.34;;;;
2021/03/24 04:34:53;;;;;;;21.05;9.9;;;;;;;-2.76;90.88477;95974.34;;;;
2021/03/24 04:35:54;;;;;;;21.05;9.9;;;;;;;-2.76;90.88477;95974.34;;;;
2021/03/24 04:37:01;;;;;;;21.05;9.9;;;;;;;-2.76;90.88477;95974.34;;;;
2021/03/24 04:38:06;;;;;;;21.05;9.9;;;;;;;-2.76;90.88477;95974.34;;;;
2021/03/24 04:39:22;;;;;;;21.05;9.9;;;;;;;-2.76;90.88477;95974.34;;;;
2021/03/24 04:40:28;;;;;;;21.05;9.9;;;;;;;-2.76;90.88477;95974.34;;;;
2021/03/24 04:41:36;;;;;;;21.05;9.9;;;;;;;-2.76;90.88477;95974.34;;;;
2021/03/24 04:42:42;;;;;;;21.05;9.9;;;;;;;-2.76;90.88477;95974.34;;;;
2021/03/24 04:43:47;;;;;;;19.3;10;;;;;;;-2.81;91.0498;95969.55;;;;
2021/03/24 04:44:52;;;;;;;19.3;10;;;;;;;-2.81;91.0498;95969.55;;;;
2021/03/24 04:45:56;;;;;;;19.3;10;;;;;;;-2.81;91.0498;95969.55;;;;
2021/03/24 04:47:00;;;;;;;19.3;10;;;;;;;-2.81;91.0498;95969.55;;;;
2021/03/24 04:48:08;;;;;;;19.3;10;;;;;;;-2.81;91.0498;95969.55;;;;
2021/03/24 04:49:15;;;;;;;19.3;10;;;;;;;-2.81;91.0498;95969.55;;;;
2021/03/24 04:50:19;;;;;;;19.3;10;;;;;;;-2.81;91.0498;95969.55;;;;
2021/03/24 04:51:24;;;;;;;19.3;10;;;;;;;-2.81;91.0498;95969.55;;;;
2021/03/24 04:52:28;;;;;;;19.3;10;;;;;;;-2.81;91.0498;95969.55;;;;
2021/03/24 04:53:33;;;;;;;19.3;10;;;;;;;-2.81;91.0498;95969.55;;;;
2021/03/24 04:54:38;;;;;;;20.9;10.1;;;;;;;-2.88;91.12891;95974.95;;;;
2021/03/24 04:55:44;;;;;;;20.9;10.1;;;;;;;-2.88;91.12891;95974.95;;;;
2021/03/24 04:56:46;;;;;;;20.9;10.1;;;;;;;-2.88;91.12891;95974.95;;;;
2021/03/24 04:57:50;;;;;;;20.9;10.1;;;;;;;-2.88;91.12891;95974.95;;;;
2021/03/24 04:58:55;;;;;;;20.9;10.1;;;;;;;-2.88;91.12891;95974.95;;;;
2021/03/24 04:59:56;;;;;;;20.9;10.1;;;;;;;-2.88;91.12891;95974.95;;;;
2021/03/24 05:01:03;;;;;;;20.9;10.1;;;;;;;-2.88;91.12891;95974.95;;;;
2021/03/24 05:02:08;;;;;;;20.9;10.1;;;;;;;-2.88;91.12891;95974.95;;;;
2021/03/24 05:03:13;;;;;;;20.9;10.1;;;;;;;-2.88;91.12891;95974.95;;;;
2021/03/24 05:04:19;;;;;;;20.9;10.1;;;;;;;-2.88;91.12891;95974.95;;;;
2021/03/24 05:05:25;;;;;;;21.3;10.2;;;;;;;-2.91;91.33691;95977.03;;;;
2021/03/24 05:06:29;;;;;;;21.3;10.2;;;;;;;-2.91;91.33691;95977.03;;;;
2021/03/24 05:07:34;;;;;;;21.3;10.2;;;;;;;-2.91;91.33691;95977.03;;;;
2021/03/24 05:08:39;;;;;;;21.3;10.2;;;;;;;-2.91;91.33691;95977.03;;;;
2021/03/24 05:09:42;;;;;;;21.3;10.2;;;;;;;-2.91;91.33691;95977.03;;;;
2021/03/24 05:10:44;;;;;;;21.3;10.2;;;;;;;-2.91;91.33691;95977.03;;;;
2021/03/24 05:11:45;;;;;;;21.3;10.2;;;;;;;-2.91;91.33691;95977.03;;;;
2021/03/24 05:12:53;;;;;;;21.3;10.2;;;;;;;-2.91;91.33691;95977.03;;;;
2021/03/24 05:14:00;;;;;;;21.3;10.2;;;;;;;-2.91;91.33691;95977.03;;;;
2021/03/24 05:15:13;;;;;;;21.3;10.2;;;;;;;-2.91;91.33691;95977.03;;;;
2021/03/24 05:16:21;;;;;;;19.55;9.65;;;;;;;-2.92;91.38672;95982.87;;;;
2021/03/24 05:17:27;;;;;;;19.55;9.65;;;;;;;-2.92;91.38672;95982.87;;;;
2021/03/24 05:18:32;;;;;;;19.55;9.65;;;;;;;-2.92;91.38672;95982.87;;;;
2021/03/24 05:19:34;;;;;;;19.55;9.65;;;;;;;-2.92;91.38672;95982.87;;;;
2021/03/24 05:20:35;;;;;;;19.55;9.65;;;;;;;-2.92;91.38672;95982.87;;;;
2021/03/24 05:21:39;;;;;;;19.55;9.65;;;;;;;-2.92;91.38672;95982.87;;;;
2021/03/24 05:22:52;;;;;;;19.55;9.65;;;;;;;-2.92;91.38672;95982.87;;;;
2021/03/24 05:23:52;;;;;;;19.55;9.65;;;;;;;-2.92;91.38672;95982.87;;;;
2021/03/24 05:24:55;;;;;;;19.55;9.65;;;;;;;-2.92;91.38672;95982.87;;;;
2021/03/24 05:26:01;;;;;;;19.55;9.65;;;;;;;-2.92;91.38672;95982.87;;;;
2021/03/24 05:27:06;;;;;;;19.45;10.05;;;;;;;-2.9;91.58691;95988.86;;;;
2021/03/24 05:28:15;;;;;;;19.45;10.05;;;;;;;-2.9;91.58691;95988.86;;;;
2021/03/24 05:29:20;;;;;;;19.45;10.05;;;;;;;-2.9;91.58691;95988.86;;;;
2021/03/24 05:30:24;;;;;;;19.45;10.05;;;;;;;-2.9;91.58691;95988.86;;;;
2021/03/24 05:31:27;;;;;;;19.45;10.05;;;;;;;-2.9;91.58691;95988.86;;;;
2021/03/24 05:32:33;;;;;;;19.45;10.05;;;;;;;-2.9;91.58691;95988.86;;;;
2021/03/24 05:33:39;;;;;;;19.45;10.05;;;;;;;-2.9;91.58691;95988.86;;;;
2021/03/24 05:34:43;;;;;;;19.45;10.05;;;;;;;-2.9;91.58691;95988.86;;;;
2021/03/24 05:35:48;;;;;;;19.45;10.05;;;;;;;-2.9;91.58691;95988.86;;;;
2021/03/24 05:37:05;;;;;;;21.6;10.1;;;;;;;-2.77;91.74121;95994.64;;;;
2021/03/24 05:38:08;;;;;;;21.6;10.1;;;;;;;-2.77;91.74121;95994.64;;;;
2021/03/24 05:39:17;;;;;;;21.6;10.1;;;;;;;-2.77;91.74121;95994.64;;;;
2021/03/24 05:40:23;;;;;;;21.6;10.1;;;;;;;-2.77;91.74121;95994.64;;;;
2021/03/24 05:41:36;;;;;;;21.6;10.1;;;;;;;-2.77;91.74121;95994.64;;;;
2021/03/24 05:42:42;;;;;;;21.6;10.1;;;;;;;-2.77;91.74121;95994.64;;;;
2021/03/24 05:43:54;;;;;;;21.6;10.1;;;;;;;-2.77;91.74121;95994.64;;;;
2021/03/24 05:46:11;;;;;;;21.6;10.1;;;;;;;-2.77;91.74121;95994.64;;;;
2021/03/24 05:47:26;;;;;;;21.6;10.1;;;;;;;-2.77;91.74121;95994.64;;;;
2021/03/24 05:48:50;;;;;;;22.15;10.55;;;;;;;-2.58;91.7793;95987.7;;;;
2021/03/24 05:50:21;;;;;;;22.15;10.55;;;;;;;-2.58;91.7793;95987.7;;;;
2021/03/24 05:51:33;;;;;;;22.15;10.55;;;;;;;-2.58;91.7793;95987.7;;;;
2021/03/24 05:52:47;;;;;;;22.15;10.55;;;;;;;-2.58;91.7793;95987.7;;;;
2021/03/24 05:54:00;;;;;;;22.15;10.55;;;;;;;-2.58;91.7793;95987.7;;;;
2021/03/24 05:55:21;;;;;;;22.15;10.55;;;;;;;-2.58;91.7793;95987.7;;;;
2021/03/24 05:56:31;;;;;;;22.15;10.55;;;;;;;-2.58;91.7793;95987.7;;;;
2021/03/24 05:57:50;;;;;;;22.15;10.55;;;;;;;-2.58;91.7793;95987.7;;;;
2021/03/24 05:59:03;;;;;;;21.55;10.05;;;;;;;-2.33;91.89648;95987.08;;;;
2021/03/24 06:00:19;;;;;;;21.55;10.05;;;;;;;-2.33;91.89648;95987.08;;;;